Airfield :
LOGIN :

Register | Disclaimer

   EN    FR    IT 

 










Legend :    VFR   Marginal VFR   IFR   Intensive IFR   Very Intensive IFR
Visi :
Ceiling :
>= 8 km
>= 3000ft
5 to 8 km
1000 to 3000 ft
1500m to 5 km
500 to 1000 ft
800 to 1500m
200 to 500 ft
< 800m
< 200 ft
Symbols :   Thunderstorms  Fog  Heavy snow  Heavy precipitations  Wind > 20 kt
SIGMETs :     Misc.  Thunderstorms  Icing  Turbulence  Mountain Waves  Volcanic Ashes







- Airport Elevation : 49 ft
- IATA code : GLZ


EHGR - Gilze-Rijen Airbase

CURRENT METAR :
  • 160835Z AUTO 26006KT 230V290 9999 -UP FEW018 SCT038 BKN049 02/01 Q1010 BLU

EXPIRED METARs :
  • 160825Z AUTO 26004KT 9999 SCT019 SCT048 02/00 Q1010 WHT
  • 160807Z AUTO 26004KT 9999 FEW020 SCT024 BKN047 02/00 Q1010 WHT
  • 160755Z AUTO 25005KT 9999 FEW150 02/00 Q1010 BLU
  • 160725Z AUTO 26005KT 9999 SCT042 02/00 Q1009 BLU
  • 160655Z AUTO 27005KT 9999 FEW015CB 01/M00 Q1009 BLU
  • 160643Z AUTO 27005KT 9999 FEW015CB 01/M00 Q1008 BLU
  • 160630Z AUTO 26006KT 9000 BR FEW025 SCT030 BKN047 02/01 Q1008 BLU
  • 160609Z AUTO 26005KT 240V320 6000 BR NCD 02/01 Q1008 WHT
  • 160556Z AUTO 25005KT 5000 BR FEW140 02/00 Q1008 WHT
  • 160555Z AUTO 25005KT 4600 BR FEW140 02/00 Q1008 GRN

Expired Forecast.
No reported NOTAMs for that airfield.



MET'MAP, your aeronautical weather chart ! - Copyright ORBIFLY December 2007 - Disclaimer

ORBIFLY MET'MAP TEAM :

Programming & Development : Alexandra Zaïnal
Concept & Development : Baudouin d'Aumeries
Co-Development & Prog : Marc-Olivier Méhu
Technical & hardware support : Manuel Goepfert

Contact : metmap@orbifly.com




SOURCES & CREDITS :

   NOAA